Time;durP1;ratioP1;P1;durP2;ratioP2;P2;SDS_P1;SDS_P2;PMS_P1;PMS_P2;Temp;Humidity;BMP_temperature;BMP_pressure;BME280_temperature;BME280_humidity;BME280_pressure;Samples;Min_cycle;Max_cycle;Signal;HPM_P1;HPM_P2
2020/12/13 00:00:32;;;;;;;38.13;24.10;;;;;;;7.39;69.59;98402.38;5038271;28;20070;-77
2020/12/13 00:02:58;;;;;;;37.70;24.75;;;;;;;7.41;69.48;98410.88;5055936;28;20435;-75
2020/12/13 00:05:23;;;;;;;38.03;26.58;;;;;;;7.73;69.67;98459.53;5056020;28;20124;-75
2020/12/13 00:07:50;;;;;;;37.30;25.58;;;;;;;7.67;69.34;98465.53;5055874;28;20102;-76
2020/12/13 00:10:16;;;;;;;39.28;24.35;;;;;;;7.41;68.92;98431.88;5055639;28;20082;-74
2020/12/13 00:12:41;;;;;;;35.40;23.40;;;;;;;7.32;68.83;98412.81;5055767;28;20074;-76
2020/12/13 00:15:07;;;;;;;35.25;23.83;;;;;;;7.57;69.12;98446.63;5055713;28;20032;-75
2020/12/13 00:17:32;;;;;;;39.50;25.00;;;;;;;7.63;69.14;98464.28;5038093;28;20040;-76
2020/12/13 00:19:58;;;;;;;37.17;24.67;;;;;;;7.38;69.16;98424.38;5056157;28;20020;-75
2020/12/13 00:22:23;;;;;;;37.78;26.42;;;;;;;7.04;69.48;98376.94;5067404;28;20047;-75
2020/12/13 00:24:49;;;;;;;34.67;24.05;;;;;;;7.24;69.55;98412.91;5056006;28;20025;-75
2020/12/13 00:27:14;;;;;;;34.65;23.92;;;;;;;7.39;69.19;98454.06;5055412;28;20346;-75
2020/12/13 00:29:40;;;;;;;29.98;21.75;;;;;;;6.99;69.54;98374.84;5037746;28;20344;-75
2020/12/13 00:32:06;;;;;;;33.28;22.95;;;;;;;6.68;69.14;98326.03;5037557;28;20108;-76
2020/12/13 00:34:33;;;;;;;33.72;22.92;;;;;;;7.59;69.61;98478.78;5054915;28;20044;-76
2020/12/13 00:36:59;;;;;;;38.78;27.25;;;;;;;7.56;69.06;98479.97;5037451;28;20052;-75
2020/12/13 00:39:24;;;;;;;37.65;25.30;;;;;;;7.53;69.46;98482.16;5054213;28;20028;-76
2020/12/13 00:41:54;;;;;;;40.33;26.85;;;;;;;7.55;69.16;98494.09;5055193;28;20433;-76
2020/12/13 00:44:21;;;;;;;38.40;29.08;;;;;;;7.54;69.24;98484.59;5055080;28;20499;-74
2020/12/13 00:46:47;;;;;;;36.17;26.33;;;;;;;7.56;69.72;98479.16;5055172;28;20032;-75
2020/12/13 00:49:14;;;;;;;40.85;29.40;;;;;;;7.19;69.12;98419.72;5054839;28;20136;-76
2020/12/13 00:51:40;;;;;;;45.45;33.25;;;;;;;7.29;68.86;98442.06;5055023;28;20029;-74
2020/12/13 00:54:05;;;;;;;42.13;32.25;;;;;;;7.54;69.22;98489.84;5054721;28;20126;-75
2020/12/13 00:56:30;;;;;;;37.47;28.67;;;;;;;7.61;68.69;98496.00;5055057;28;20067;-74
2020/12/13 00:58:56;;;;;;;42.05;30.42;;;;;;;7.45;68.77;98480.44;5037152;28;20021;-75
2020/12/13 01:01:22;;;;;;;38.30;30.38;;;;;;;7.40;68.99;98466.22;5054877;28;20032;-76
2020/12/13 01:03:47;;;;;;;38.70;29.63;;;;;;;7.25;68.68;98421.59;5037457;28;20083;-75
2020/12/13 01:06:23;;;;;;;37.03;27.75;;;;;;;7.44;68.84;98447.31;5036906;28;20033;-76
2020/12/13 01:08:51;;;;;;;38.20;29.15;;;;;;;7.07;68.49;98390.50;5054714;28;20032;-76
2020/12/13 01:11:31;;;;;;;40.17;29.27;;;;;;;7.65;68.42;98491.19;5054733;28;20025;-77
2020/12/13 01:13:58;;;;;;;42.90;32.80;;;;;;;7.61;68.60;98497.81;5054728;28;20025;-76
2020/12/13 01:16:25;;;;;;;45.42;32.22;;;;;;;7.21;68.52;98447.41;5054680;28;20091;-76
2020/12/13 01:18:50;;;;;;;43.53;32.50;;;;;;;7.39;68.91;98478.53;5054539;28;20107;-75
2020/12/13 01:21:18;;;;;;;44.90;33.72;;;;;;;7.37;68.78;98472.63;5054501;28;20466;-76
2020/12/13 01:23:44;;;;;;;44.33;32.20;;;;;;;7.11;69.14;98430.31;5054713;28;20052;-76
2020/12/13 01:26:11;;;;;;;42.53;31.17;;;;;;;7.47;69.09;98469.75;5039533;28;20029;-76
2020/12/13 01:28:36;;;;;;;51.40;35.80;;;;;;;7.61;68.90;98496.00;5045085;28;20036;-77
2020/12/13 01:31:02;;;;;;;45.08;33.97;;;;;;;7.69;68.94;98499.50;5036778;28;20033;-76
2020/12/13 01:33:27;;;;;;;43.30;31.85;;;;;;;7.36;69.18;98436.06;5054463;28;20035;-77
2020/12/13 01:35:52;;;;;;;36.78;29.20;;;;;;;7.26;69.24;98418.78;5054417;28;20481;-74
2020/12/13 01:38:18;;;;;;;42.08;29.60;;;;;;;7.45;69.50;98456.81;5054303;28;20398;-76
2020/12/13 01:40:43;;;;;;;34.90;26.75;;;;;;;7.71;68.94;98495.69;5054398;28;20348;-76
2020/12/13 01:43:08;;;;;;;36.95;27.75;;;;;;;7.74;68.83;98502.38;5054262;28;20111;-75
2020/12/13 01:45:34;;;;;;;30.95;22.50;;;;;;;7.65;68.81;98486.75;5054336;28;20056;-76
2020/12/13 01:47:59;;;;;;;31.52;23.48;;;;;;;7.77;68.62;98502.84;5056462;28;20039;-75
2020/12/13 01:50:50;;;;;;;35.13;23.00;;;;;;;7.65;68.64;98481.47;5040691;28;20090;-76
2020/12/13 01:53:24;;;;;;;34.65;22.98;;;;;;;7.75;68.92;98496.13;5058316;28;20032;-76
2020/12/13 01:55:51;;;;;;;37.55;26.52;;;;;;;7.64;68.63;98471.97;5058223;28;20052;-76
2020/12/13 01:58:23;;;;;;;39.90;25.27;;;;;;;7.81;68.99;98492.75;5058134;28;20436;-75
2020/12/13 02:00:52;;;;;;;35.13;22.58;;;;;;;7.38;68.55;98429.63;5056974;28;20107;-75
2020/12/13 02:03:22;;;;;;;32.03;23.92;;;;;;;7.67;68.94;98483.09;5057034;28;20040;-73
2020/12/13 02:06:00;;;;;;;30.55;21.73;;;;;;;7.64;68.69;98461.47;5058294;28;20025;-74
2020/12/13 02:08:37;;;;;;;31.85;21.67;;;;;;;7.38;69.04;98434.06;5058276;28;20028;-74
2020/12/13 02:11:03;;;;;;;33.22;21.65;;;;;;;7.08;69.12;98381.63;5057927;28;20029;-76
2020/12/13 02:13:28;;;;;;;29.85;21.52;;;;;;;7.54;68.97;98455.69;5057892;28;20435;-75
2020/12/13 02:15:54;;;;;;;29.17;21.58;;;;;;;7.50;69.02;98441.31;5057999;28;20029;-75
2020/12/13 02:18:20;;;;;;;31.50;22.20;;;;;;;7.38;68.98;98421.75;5040117;28;20025;-75
2020/12/13 02:20:45;;;;;;;31.08;21.58;;;;;;;7.16;69.27;98380.72;5061767;28;20021;-74
2020/12/13 02:23:10;;;;;;;31.42;20.88;;;;;;;7.74;69.04;98469.03;5041068;28;20025;-75
2020/12/13 02:25:36;;;;;;;24.23;17.38;;;;;;;7.53;68.91;98456.69;5058061;28;20032;-75
2020/12/13 02:28:02;;;;;;;26.15;18.13;;;;;;;7.67;69.21;98477.84;5039928;28;20021;-74
2020/12/13 02:30:28;;;;;;;23.88;16.70;;;;;;;7.20;69.60;98414.28;5057957;28;20025;-75
2020/12/13 02:32:53;;;;;;;21.08;15.25;;;;;;;7.21;69.21;98421.16;5039987;28;20035;-76
2020/12/13 02:35:19;;;;;;;15.00;12.60;;;;;;;7.58;69.37;98461.41;5057448;28;20025;-75
2020/12/13 02:37:44;;;;;;;17.83;14.13;;;;;;;7.59;69.28;98460.41;5057506;28;20115;-74
2020/12/13 02:40:10;;;;;;;17.05;13.65;;;;;;;7.43;69.34;98437.78;5039736;28;20025;-75
2020/12/13 02:42:37;;;;;;;14.98;12.40;;;;;;;7.27;68.79;98436.16;5057465;28;20024;-75
2020/12/13 02:45:04;;;;;;;21.58;14.00;;;;;;;7.29;69.09;98422.84;5057269;28;20078;-74
2020/12/13 02:47:29;;;;;;;19.60;13.30;;;;;;;7.71;69.55;98489.63;5057352;28;20028;-76
2020/12/13 02:49:54;;;;;;;16.17;13.35;;;;;;;7.72;68.76;98481.56;5039589;28;20044;-74
2020/12/13 02:52:20;;;;;;;17.25;13.32;;;;;;;6.87;69.48;98350.09;5057292;28;20094;-74
2020/12/13 02:54:45;;;;;;;16.83;12.52;;;;;;;7.47;68.88;98459.25;5039354;28;20052;-75
2020/12/13 02:57:12;;;;;;;26.83;13.70;;;;;;;7.41;69.25;98431.88;5039616;28;20118;-74
2020/12/13 02:59:37;;;;;;;16.38;13.75;;;;;;;7.64;68.91;98477.22;5056617;28;20383;-74
2020/12/13 03:02:02;;;;;;;16.80;12.65;;;;;;;7.72;69.19;98481.56;5039323;28;20029;-74
2020/12/13 03:04:28;;;;;;;19.10;13.00;;;;;;;7.31;69.01;98412.97;5057099;28;20033;-75
2020/12/13 03:06:53;;;;;;;20.85;14.38;;;;;;;7.75;69.69;98477.75;5056982;28;20052;-74
2020/12/13 03:09:18;;;;;;;18.77;14.98;;;;;;;7.28;69.12;98410.72;5039158;28;20025;-73
2020/12/13 03:11:44;;;;;;;22.02;15.85;;;;;;;7.57;69.10;98462.41;5057048;28;20442;-74
2020/12/13 03:14:09;;;;;;;21.08;15.45;;;;;;;7.39;69.34;98430.44;5056669;28;20044;-74
2020/12/13 03:16:34;;;;;;;24.90;16.20;;;;;;;7.58;69.05;98480.59;5056779;28;20047;-74
2020/12/13 03:19:00;;;;;;;24.75;16.10;;;;;;;7.69;69.12;98484.56;5039045;28;20066;-74
2020/12/13 03:21:25;;;;;;;22.60;16.63;;;;;;;7.48;69.18;98460.88;5038924;28;20029;-75
2020/12/13 03:23:51;;;;;;;22.73;16.85;;;;;;;7.54;69.40;98468.84;5056842;28;20103;-74
2020/12/13 03:26:16;;;;;;;26.48;18.38;;;;;;;7.01;68.98;98383.34;5044823;28;20021;-74
2020/12/13 03:28:41;;;;;;;24.17;18.08;;;;;;;7.73;69.38;98506.00;5058301;28;20037;-75
2020/12/13 03:31:07;;;;;;;22.85;16.75;;;;;;;7.72;68.89;98492.06;5056297;28;20488;-74
2020/12/13 03:33:32;;;;;;;24.27;17.55;;;;;;;7.32;69.50;98440.88;5056547;28;20468;-74
2020/12/13 03:35:57;;;;;;;22.38;16.95;;;;;;;7.74;69.45;98494.50;5056479;28;20442;-74
2020/12/13 03:38:23;;;;;;;23.10;16.92;;;;;;;7.71;68.84;98481.75;5056308;28;20344;-74
2020/12/13 03:40:48;;;;;;;20.63;16.95;;;;;;;7.52;68.97;98449.81;5056415;28;20032;-74
2020/12/13 03:43:14;;;;;;;23.52;18.75;;;;;;;7.75;68.71;98496.13;5056240;28;20060;-74
2020/12/13 03:45:39;;;;;;;19.30;15.75;;;;;;;7.61;68.64;98479.41;5056297;28;20033;-76
2020/12/13 03:48:05;;;;;;;22.00;16.60;;;;;;;7.65;68.72;98483.28;5056036;28;20032;-76
2020/12/13 03:50:39;;;;;;;20.10;15.63;;;;;;;7.64;69.47;98489.56;5056164;28;20029;-76
2020/12/13 03:53:09;;;;;;;20.48;15.52;;;;;;;7.56;68.83;98481.78;5038359;28;20435;-75
2020/12/13 03:55:36;;;;;;;23.30;16.05;;;;;;;7.62;69.23;98492.38;5054892;28;20351;-76
2020/12/13 03:58:02;;;;;;;21.42;17.20;;;;;;;7.54;69.00;98474.09;5038249;28;20037;-76
2020/12/13 04:00:27;;;;;;;23.13;17.67;;;;;;;7.60;68.90;98486.47;5055879;28;20104;-75
2020/12/13 04:02:54;;;;;;;25.27;17.45;;;;;;;7.64;69.53;98495.63;5055920;28;20108;-75
2020/12/13 04:05:22;;;;;;;25.05;18.38;;;;;;;7.53;68.90;98487.41;5055766;28;20055;-76
2020/12/13 04:07:47;;;;;;;27.45;18.38;;;;;;;7.49;69.05;98488.78;5055840;28;20028;-75
2020/12/13 04:10:12;;;;;;;31.67;20.58;;;;;;;7.65;69.01;98492.00;5054931;28;20036;-76
2020/12/13 04:12:38;;;;;;;31.27;21.58;;;;;;;7.66;69.12;98495.44;5055776;28;20041;-76
2020/12/13 04:15:03;;;;;;;26.90;18.55;;;;;;;7.52;69.47;98480.53;5055556;28;20067;-75
2020/12/13 04:17:28;;;;;;;34.60;22.08;;;;;;;7.58;69.55;98498.97;5055584;28;20355;-76
2020/12/13 04:19:54;;;;;;;29.13;20.13;;;;;;;7.09;69.37;98422.63;5038017;28;20032;-77
2020/12/13 04:22:19;;;;;;;28.05;19.70;;;;;;;7.02;69.06;98419.09;5055534;28;20408;-76
2020/12/13 04:24:44;;;;;;;32.92;22.35;;;;;;;7.54;69.50;98502.16;5055532;28;20037;-76
2020/12/13 04:27:10;;;;;;;28.58;19.92;;;;;;;7.56;68.91;98516.75;5055323;28;20036;-76
2020/12/13 04:29:35;;;;;;;25.20;18.38;;;;;;;7.39;69.09;98483.78;5055401;28;20024;-75
2020/12/13 04:32:00;;;;;;;22.08;16.50;;;;;;;7.59;69.34;98523.44;5059599;28;20032;-76
2020/12/13 04:34:26;;;;;;;23.92;17.17;;;;;;;7.33;69.79;98468.75;5056102;28;20028;-76
2020/12/13 04:36:51;;;;;;;21.58;15.90;;;;;;;7.62;69.23;98533.56;5037811;28;20033;-75
2020/12/13 04:39:16;;;;;;;21.60;16.25;;;;;;;7.60;69.58;98527.69;5055211;28;20411;-76
2020/12/13 04:41:42;;;;;;;21.30;16.40;;;;;;;7.62;69.75;98528.31;5055348;28;20024;-75
2020/12/13 04:44:07;;;;;;;22.13;14.82;;;;;;;7.56;70.10;98521.19;5055035;28;20041;-76
2020/12/13 04:46:37;;;;;;;26.13;18.67;;;;;;;7.50;70.18;98511.41;5055074;28;20029;-75
2020/12/13 04:49:03;;;;;;;23.83;16.65;;;;;;;7.64;69.72;98529.78;5054960;28;20467;-76
2020/12/13 04:51:32;;;;;;;25.75;17.58;;;;;;;7.28;69.69;98466.69;5037404;28;20111;-76
2020/12/13 04:54:05;;;;;;;23.88;16.17;;;;;;;7.70;69.62;98530.84;5053053;28;20064;-75
2020/12/13 04:56:36;;;;;;;24.77;17.20;;;;;;;7.30;69.36;98463.88;5050433;28;20041;-76
2020/12/13 04:59:05;;;;;;;26.70;18.77;;;;;;;7.54;69.34;98483.78;5037307;28;20028;-76
2020/12/13 05:01:31;;;;;;;30.08;17.48;;;;;;;7.73;69.99;98514.72;5054783;28;20435;-75
2020/12/13 05:03:57;;;;;;;27.88;17.40;;;;;;;7.41;69.49;98471.28;5037266;28;20020;-76
2020/12/13 05:06:22;;;;;;;28.90;18.20;;;;;;;7.40;70.05;98463.59;5054744;28;20759;-76
2020/12/13 05:08:48;;;;;;;32.33;18.90;;;;;;;7.45;70.09;98493.56;5054625;28;20032;-76
2020/12/13 05:11:14;;;;;;;34.75;20.13;;;;;;;7.25;70.48;98466.22;5054726;28;20031;-75
2020/12/13 05:13:40;;;;;;;36.40;19.77;;;;;;;7.86;70.23;98543.75;5054744;28;20102;-75
2020/12/13 05:16:07;;;;;;;42.30;21.50;;;;;;;7.56;70.60;98487.03;5054562;28;20040;-76
2020/12/13 05:18:32;;;;;;;50.00;20.77;;;;;;;7.89;71.08;98540.75;5054666;28;20064;-76
2020/12/13 05:20:58;;;;;;;52.70;22.63;;;;;;;7.70;70.70;98528.22;5036860;28;20013;-76
2020/12/13 05:23:24;;;;;;;61.60;24.33;;;;;;;7.54;71.48;98521.38;5054462;28;20419;-76
2020/12/13 05:25:51;;;;;;;43.42;21.23;;;;;;;7.13;71.27;98463.25;5054580;28;20060;-75
2020/12/13 05:28:17;;;;;;;43.58;22.90;;;;;;;7.13;71.63;98483.44;5053710;28;20344;-76
2020/12/13 05:30:46;;;;;;;47.50;23.60;;;;;;;7.61;71.25;98556.41;5054435;28;20028;-76
2020/12/13 05:33:37;;;;;;;43.85;22.13;;;;;;;7.63;71.69;98564.09;5020884;28;20098;-76
2020/12/13 05:36:10;;;;;;;49.92;24.40;;;;;;;7.47;71.36;98544.09;5053973;28;20033;-75
2020/12/13 05:38:37;;;;;;;59.75;26.95;;;;;;;6.94;71.23;98448.88;5064419;28;20028;-76
2020/12/13 05:41:05;;;;;;;66.60;27.30;;;;;;;7.59;71.65;98553.16;5058040;28;20094;-76
2020/12/13 05:43:36;;;;;;;47.35;23.33;;;;;;;7.43;71.27;98539.38;5036856;28;20033;-77
2020/12/13 05:53:55;;;;;;;45.47;26.20;;;;;;;7.84;71.29;98600.13;5010075;28;20073;-75
2020/12/13 05:56:23;;;;;;;52.53;27.80;;;;;;;7.87;71.50;98590.06;5036799;28;20025;-76
2020/12/13 05:58:51;;;;;;;50.90;29.88;;;;;;;7.67;71.34;98549.59;5054210;28;20056;-75
2020/12/13 06:01:21;;;;;;;59.45;37.00;;;;;;;7.26;71.46;98478.34;5054061;28;20035;-75
2020/12/13 06:03:50;;;;;;;72.72;41.88;;;;;;;7.92;71.04;98592.97;5053172;28;20128;-76
2020/12/13 06:06:21;;;;;;;62.90;40.08;;;;;;;7.69;71.48;98555.50;5054045;28;20025;-76
2020/12/13 06:08:58;;;;;;;91.35;51.88;;;;;;;7.59;71.03;98552.34;5053008;28;20021;-76
2020/12/13 06:11:32;;;;;;;95.85;54.97;;;;;;;7.78;70.97;98598.25;5054039;28;20032;-75
2020/12/13 06:14:06;;;;;;;95.03;51.65;;;;;;;7.10;71.44;98517.94;5054130;28;20029;-75
2020/12/13 06:16:33;;;;;;;96.40;52.63;;;;;;;7.61;71.14;98571.34;5054125;28;20075;-76
2020/12/13 06:18:59;;;;;;;111.53;58.72;;;;;;;7.64;70.89;98581.50;5054047;28;20021;-76
2020/12/13 06:21:24;;;;;;;65.78;39.85;;;;;;;7.58;71.42;98567.28;5053909;28;20025;-76
2020/12/13 06:23:53;;;;;;;76.28;42.60;;;;;;;7.18;71.18;98492.41;5054070;28;20025;-76
2020/12/13 06:26:19;;;;;;;62.83;39.15;;;;;;;7.33;71.36;98510.75;5053867;28;20028;-76
2020/12/13 06:28:45;;;;;;;59.88;37.58;;;;;;;7.53;71.12;98551.25;5036664;28;20082;-77
2020/12/13 06:31:15;;;;;;;75.13;44.72;;;;;;;7.78;70.69;98574.59;5036128;28;20029;-78
2020/12/13 06:33:41;;;;;;;73.00;47.38;;;;;;;7.94;71.50;98598.03;5054554;28;20025;-76
2020/12/13 06:36:08;;;;;;;62.70;40.53;;;;;;;7.62;70.96;98559.84;5039808;28;20016;-76
2020/12/13 06:38:34;;;;;;;60.78;38.58;;;;;;;7.96;71.04;98603.91;5057635;28;20351;-76
2020/12/13 06:41:10;;;;;;;52.22;35.05;;;;;;;7.85;71.29;98586.00;5057562;28;20025;-76
2020/12/13 06:43:54;;;;;;;59.17;40.60;;;;;;;8.00;70.87;98605.19;5043449;28;20167;-76
2020/12/13 06:46:20;;;;;;;63.63;42.95;;;;;;;8.04;71.02;98611.69;5061673;28;20448;-77
2020/12/13 06:48:46;;;;;;;49.95;34.58;;;;;;;7.58;70.80;98542.81;5057842;28;20029;-76
2020/12/13 06:51:24;;;;;;;52.33;36.28;;;;;;;8.01;70.52;98611.25;5057305;28;20017;-76
2020/12/13 06:53:51;;;;;;;45.05;32.20;;;;;;;8.00;71.10;98580.72;5057346;28;20347;-76
2020/12/13 06:56:18;;;;;;;42.05;29.52;;;;;;;8.11;70.64;98607.34;5057285;28;20029;-76
2020/12/13 06:58:55;;;;;;;42.58;30.45;;;;;;;8.05;70.44;98589.66;5039406;28;20029;-75
2020/12/13 07:01:27;;;;;;;43.13;30.10;;;;;;;8.14;70.78;98600.88;5039346;28;20051;-76
2020/12/13 07:03:53;;;;;;;47.10;31.50;;;;;;;8.16;70.43;98594.44;5057189;28;20029;-76
2020/12/13 07:06:22;;;;;;;62.78;38.55;;;;;;;8.21;70.79;98597.34;5057099;28;20107;-76
2020/12/13 07:09:00;;;;;;;51.47;34.75;;;;;;;7.98;70.78;98562.50;5056980;28;20035;-76
2020/12/13 07:11:28;;;;;;;61.30;38.20;;;;;;;8.10;70.26;98568.91;5056821;28;20417;-77
2020/12/13 07:14:09;;;;;;;56.63;35.38;;;;;;;8.10;70.74;98568.91;5056821;28;20442;-76
2020/12/13 07:16:37;;;;;;;48.17;32.50;;;;;;;8.12;70.11;98564.25;5056858;28;20159;-76
2020/12/13 07:19:06;;;;;;;48.20;32.35;;;;;;;8.41;70.72;98605.47;5039207;28;20359;-76
2020/12/13 07:21:31;;;;;;;46.40;30.65;;;;;;;8.44;70.11;98609.56;5056751;28;20428;-76
2020/12/13 07:24:00;;;;;;;40.47;28.02;;;;;;;8.27;70.19;98582.66;5056726;28;20074;-77
2020/12/13 07:26:26;;;;;;;41.92;28.40;;;;;;;8.46;70.17;98605.75;5038903;28;20033;-76
2020/12/13 07:28:54;;;;;;;47.38;28.95;;;;;;;8.17;70.00;98558.44;5056592;28;20334;-77
2020/12/13 07:31:20;;;;;;;39.78;28.17;;;;;;;8.44;69.98;98601.66;5038915;28;20113;-76
2020/12/13 07:33:48;;;;;;;34.92;24.90;;;;;;;8.47;70.09;98601.28;5056664;28;20108;-76
2020/12/13 07:36:14;;;;;;;39.58;25.92;;;;;;;8.60;70.27;98604.03;5056558;28;20024;-76
2020/12/13 07:38:40;;;;;;;35.45;23.20;;;;;;;8.64;69.83;98618.47;5056544;28;20427;-76
2020/12/13 07:41:17;;;;;;;31.45;22.80;;;;;;;8.52;70.11;98620.78;5038745;28;20035;-76
2020/12/13 07:43:55;;;;;;;36.30;24.88;;;;;;;8.58;69.85;98624.47;5056730;28;20324;-76
2020/12/13 07:46:21;;;;;;;42.28;27.77;;;;;;;8.13;69.86;98549.31;5055357;28;20063;-77
2020/12/13 07:48:46;;;;;;;43.88;28.30;;;;;;;8.35;69.97;98581.75;5056279;28;20056;-76
2020/12/13 07:51:12;;;;;;;41.38;26.33;;;;;;;8.65;70.22;98622.72;5046577;28;20431;-76
2020/12/13 07:53:37;;;;;;;32.30;22.85;;;;;;;8.54;70.14;98602.16;5038757;28;20035;-76
2020/12/13 07:56:03;;;;;;;30.85;20.77;;;;;;;8.37;69.55;98588.44;5038650;28;20051;-78
2020/12/13 07:58:28;;;;;;;35.70;22.48;;;;;;;8.36;70.00;98592.09;5056007;28;20021;-76
2020/12/13 08:01:07;;;;;;;34.92;22.67;;;;;;;8.35;69.90;98587.00;5056115;28;20029;-76
2020/12/13 08:03:45;;;;;;;30.10;20.77;;;;;;;8.69;69.66;98647.66;5056264;28;20021;-77
2020/12/13 08:06:13;;;;;;;29.90;19.98;;;;;;;8.14;69.39;98571.97;5055906;28;20477;-76
2020/12/13 08:08:43;;;;;;;27.73;19.13;;;;;;;8.31;69.33;98612.03;5038186;28;20024;-77
2020/12/13 08:11:13;;;;;;;27.52;17.27;;;;;;;8.41;69.50;98639.69;5038156;28;20025;-76
2020/12/13 08:13:46;;;;;;;27.15;18.38;;;;;;;8.70;69.52;98666.88;5056095;28;20383;-76
2020/12/13 08:16:13;;;;;;;24.63;18.02;;;;;;;8.21;69.10;98586.03;5055746;28;20033;-76
2020/12/13 08:18:43;;;;;;;24.58;17.60;;;;;;;8.73;69.09;98674.41;5055654;28;20017;-77
2020/12/13 08:21:10;;;;;;;30.65;18.70;;;;;;;8.83;68.73;98667.84;5037950;28;20316;-76
2020/12/13 08:23:37;;;;;;;29.13;20.05;;;;;;;8.88;69.31;98670.72;5055772;28;20154;-76
2020/12/13 08:26:03;;;;;;;28.42;20.20;;;;;;;8.76;69.13;98653.78;5055699;28;20117;-76
2020/12/13 08:28:32;;;;;;;29.90;21.23;;;;;;;8.91;68.86;98686.13;5055412;28;20025;-76
2020/12/13 08:31:00;;;;;;;30.42;21.15;;;;;;;8.52;68.88;98591.03;5055572;28;20449;-76
2020/12/13 08:33:25;;;;;;;35.67;23.52;;;;;;;8.61;69.03;98613.56;5054237;28;20086;-76
2020/12/13 08:35:51;;;;;;;35.25;23.77;;;;;;;9.01;69.02;98658.69;5055423;28;20415;-76
2020/12/13 08:38:16;;;;;;;29.48;22.05;;;;;;;9.00;69.55;98659.69;5055366;28;20029;-76
2020/12/13 08:40:46;;;;;;;27.98;20.45;;;;;;;9.01;69.04;98661.34;5055311;28;20028;-77
2020/12/13 08:43:19;;;;;;;30.48;21.27;;;;;;;8.80;68.86;98635.81;5055320;28;20378;-76
2020/12/13 08:45:53;;;;;;;36.92;23.75;;;;;;;8.72;69.06;98631.47;5055195;28;20362;-76
2020/12/13 08:48:27;;;;;;;32.67;22.10;;;;;;;8.97;69.07;98666.16;5054958;28;20029;-76
2020/12/13 08:51:11;;;;;;;31.45;21.73;;;;;;;8.81;69.07;98646.16;5055282;28;20427;-76
2020/12/13 08:53:37;;;;;;;31.65;22.02;;;;;;;8.55;69.30;98598.53;5054169;28;20321;-76
2020/12/13 08:56:06;;;;;;;30.63;22.08;;;;;;;8.94;68.73;98666.53;5056667;28;20052;-77
2020/12/13 08:58:48;;;;;;;31.73;21.80;;;;;;;8.63;69.64;98631.81;5061098;28;20029;-76
2020/12/13 09:01:14;;;;;;;30.23;22.05;;;;;;;8.77;69.33;98662.50;5054944;28;20036;-76
2020/12/13 09:03:39;;;;;;;31.92;22.83;;;;;;;8.73;69.53;98659.44;5055426;28;20021;-76
2020/12/13 09:06:05;;;;;;;34.45;23.45;;;;;;;8.73;69.48;98658.63;5054917;28;20435;-76
2020/12/13 09:08:30;;;;;;;31.13;22.70;;;;;;;8.72;69.92;98657.00;5037027;28;20029;-76
2020/12/13 09:10:57;;;;;;;30.30;22.30;;;;;;;7.94;69.43;98532.31;5037110;28;20021;-76
2020/12/13 09:13:22;;;;;;;31.55;22.60;;;;;;;8.44;69.36;98593.78;5054664;28;20029;-77
2020/12/13 09:15:48;;;;;;;32.25;21.10;;;;;;;8.78;69.79;98651.78;5054889;28;20119;-77
2020/12/13 09:18:13;;;;;;;29.08;20.45;;;;;;;8.44;69.58;98591.16;5054785;28;20083;-76
2020/12/13 09:20:39;;;;;;;32.15;24.48;;;;;;;8.72;69.72;98628.03;5054751;28;20055;-77
2020/12/13 09:23:12;;;;;;;36.58;24.83;;;;;;;8.86;69.42;98635.88;5037131;28;20040;-77
2020/12/13 09:25:46;;;;;;;32.60;24.23;;;;;;;8.66;69.57;98615.63;5054707;28;20028;-76
2020/12/13 09:28:13;;;;;;;33.70;22.40;;;;;;;8.69;69.73;98621.34;5036695;28;20415;-76
2020/12/13 09:30:40;;;;;;;33.00;21.80;;;;;;;8.47;69.92;98588.13;5054590;28;20116;-76
2020/12/13 09:33:07;;;;;;;31.15;22.20;;;;;;;8.81;69.87;98645.34;5036988;28;20457;-76
2020/12/13 09:35:33;;;;;;;32.15;22.20;;;;;;;8.42;69.97;98585.25;5054371;28;20388;-77
2020/12/13 09:38:04;;;;;;;39.83;25.83;;;;;;;8.78;69.80;98640.44;5053377;28;20064;-77
2020/12/13 09:40:32;;;;;;;38.42;25.88;;;;;;;8.84;69.96;98642.31;5054397;28;20033;-77
2020/12/13 09:42:58;;;;;;;39.70;29.42;;;;;;;8.45;69.97;98585.69;5054277;28;20028;-77
2020/12/13 09:45:24;;;;;;;42.20;27.52;;;;;;;8.95;70.06;98646.28;5054320;28;20108;-76
2020/12/13 09:47:49;;;;;;;43.70;30.08;;;;;;;8.59;69.75;98586.63;5054366;28;20057;-77
2020/12/13 09:50:17;;;;;;;42.10;31.58;;;;;;;8.87;69.69;98642.75;5054468;28;20037;-77
2020/12/13 09:52:43;;;;;;;41.13;31.13;;;;;;;8.57;70.14;98576.28;5051495;28;20028;-77
2020/12/13 09:55:08;;;;;;;36.05;26.02;;;;;;;9.03;69.84;98620.66;5070136;28;20056;-76
2020/12/13 09:57:34;;;;;;;34.45;23.48;;;;;;;8.74;69.89;98555.78;5074190;28;20111;-76
2020/12/13 09:59:59;;;;;;;29.52;21.83;;;;;;;9.09;70.25;98605.91;5074368;28;20482;-77
2020/12/13 10:02:25;;;;;;;33.63;21.80;;;;;;;9.08;70.13;98606.91;5074097;28;20414;-76
2020/12/13 10:04:50;;;;;;;35.78;22.30;;;;;;;9.07;70.02;98589.47;5081382;28;20032;-76
2020/12/13 10:09:43;;;;;;;28.70;19.80;;;;;;;9.18;69.84;98608.19;5076434;28;20093;-76
2020/12/13 10:12:09;;;;;;;30.52;21.67;;;;;;;9.23;69.98;98615.53;5075082;28;20442;-76
2020/12/13 10:14:34;;;;;;;33.08;22.67;;;;;;;8.93;69.92;98551.72;5077820;28;20044;-75
2020/12/13 10:17:00;;;;;;;35.58;23.95;;;;;;;9.29;70.04;98601.59;5078151;28;20028;-77
2020/12/13 10:19:26;;;;;;;35.40;26.55;;;;;;;9.01;69.83;98571.81;5078141;28;20021;-75
2020/12/13 10:21:51;;;;;;;34.03;23.80;;;;;;;9.34;69.79;98604.44;5077882;28;20054;-76
2020/12/13 10:24:17;;;;;;;25.75;19.08;;;;;;;9.22;69.94;98569.94;5060171;28;20039;-76
2020/12/13 10:26:42;;;;;;;27.13;19.42;;;;;;;9.39;69.68;98578.34;5077972;28;20032;-77
2020/12/13 10:29:11;;;;;;;26.30;17.88;;;;;;;9.38;69.60;98583.81;5059974;28;20400;-76
2020/12/13 10:31:38;;;;;;;22.30;16.67;;;;;;;9.22;69.51;98548.06;5077777;28;20028;-76
2020/12/13 10:34:06;;;;;;;26.30;18.08;;;;;;;9.20;69.00;98552.69;5078044;28;20028;-76
2020/12/13 10:36:33;;;;;;;24.73;18.15;;;;;;;9.13;69.20;98538.69;5059521;28;20028;-76
2020/12/13 10:38:58;;;;;;;31.25;20.95;;;;;;;9.33;69.00;98584.38;5077692;28;20177;-76
2020/12/13 10:41:24;;;;;;;23.40;17.33;;;;;;;8.87;69.23;98519.03;5059793;28;20112;-75
2020/12/13 10:43:50;;;;;;;24.90;17.65;;;;;;;9.39;68.86;98601.25;5077785;28;20024;-76
2020/12/13 10:46:17;;;;;;;21.85;17.05;;;;;;;9.26;68.19;98557.19;5077438;28;20036;-77
2020/12/13 10:48:43;;;;;;;22.52;16.55;;;;;;;9.51;68.35;98592.59;5077601;28;20036;-77
2020/12/13 10:51:09;;;;;;;26.02;17.23;;;;;;;9.52;67.96;98596.88;5077331;28;20025;-77
2020/12/13 10:53:34;;;;;;;25.55;17.30;;;;;;;9.49;68.09;98591.97;5077427;28;20028;-75
2020/12/13 10:56:03;;;;;;;24.05;19.10;;;;;;;9.53;68.13;98587.94;5077245;28;20061;-77
2020/12/13 10:58:28;;;;;;;21.73;17.70;;;;;;;9.55;68.09;98582.47;5077201;28;20032;-77
2020/12/13 11:00:53;;;;;;;22.70;16.20;;;;;;;9.45;68.23;98580.19;5077353;28;20032;-76
2020/12/13 11:03:19;;;;;;;22.92;16.88;;;;;;;9.10;68.32;98531.16;5077205;28;20029;-77
2020/12/13 11:05:45;;;;;;;22.67;16.88;;;;;;;8.91;68.35;98479.97;5077185;28;20115;-76
2020/12/13 11:08:11;;;;;;;25.08;16.92;;;;;;;9.57;68.43;98583.91;5077181;28;20032;-76
2020/12/13 11:10:37;;;;;;;24.15;17.40;;;;;;;9.65;68.47;98585.56;5081082;28;20056;-77
2020/12/13 11:13:02;;;;;;;24.17;16.40;;;;;;;9.31;68.30;98536.34;5059896;28;20033;-76
2020/12/13 11:15:28;;;;;;;26.33;18.85;;;;;;;9.69;68.28;98588.66;5077016;28;20111;-76
2020/12/13 11:17:53;;;;;;;20.40;14.80;;;;;;;9.27;68.08;98524.56;5077052;28;20031;-75
2020/12/13 11:20:19;;;;;;;22.35;15.95;;;;;;;9.58;67.84;98574.19;5076607;28;20032;-76
2020/12/13 11:22:44;;;;;;;21.83;14.23;;;;;;;9.65;67.91;98590.03;5059058;28;20034;-76
2020/12/13 11:25:09;;;;;;;23.80;15.45;;;;;;;9.62;68.11;98587.78;5059152;28;20441;-75
2020/12/13 11:27:35;;;;;;;19.92;14.10;;;;;;;9.45;68.09;98580.19;5076705;28;20051;-76
2020/12/13 11:30:06;;;;;;;19.52;13.93;;;;;;;9.56;68.04;98584.09;5072136;28;20093;-77
2020/12/13 11:32:32;;;;;;;21.37;14.50;;;;;;;9.11;68.40;98514.38;5074892;28;20390;-76
2020/12/13 11:34:57;;;;;;;21.88;14.85;;;;;;;9.51;68.18;98568.06;5056629;28;20031;-76